Accueil
METAR-TAF:

METAR-TAF

Aéroports :

Aéroport de Longyearbyen

Longyearbyen, Norvège

latitude: 78-15N, longitude: 015-28E, altitude: 2 m

Observation

Le bulletin a été fait il y a 1 heure et 4 minutes, à 10:50 UTC
Vent 7 kt de est, variant entre nord-est et est/sud-est
Température -17°C
Humidité 71%
Pression 1003 hPa
Visibilité 10 km ou plus
Quelques nuages à une hauteur de 2500 ft
Nuages fragmentés à une hauteur de 3000 ft

METAR: ENSB 161050Z 09007KT 050V110 9999 FEW025 BKN030 M17/M21 Q1003 RMK WIND 1400FT 04007KT

Heure: 12:54 (11:54 UTC)

Prévision

Prévision valable du 16 à 06 UTC au 17 à 06 UTC
Vent 9 kt de est/sud-est
Visibilité 10 km ou plus
Nuages fragmentés à une hauteur de 3000 ft
Evoluant progressivement
du 16 à 09 UTC au 16 à 12 UTC
Vent 15 kt de nord/nord-est

TAF: ENSB 1606/1706 11009KT 9999 BKN030 BECMG 1609/1612 02015KT

Observations et prévisions météorologiques de plus de 4000 aéroports (messages METAR et TAF).

Les stations disponibles sont représentées par des disques jaunes et rouges sur la carte.

Passer la souris dessus pour voir le nom de la station.

Cliquer dessus pour voir les observations et prévisions météorologiques.

Pour changer de carte: cliquez sur les boutons verts avec une croix noire pour zoomer, sur le bouton vert avec un tiret pour effectuer un zoom arrière, ou sur les flèches vertes pour les cartes adjacentes.


METAR-TAF: